createdAt,value
2018-02-07T00:02:20.116Z,27.30
2018-02-07T00:04:48.506Z,27.87
2018-02-07T00:07:16.771Z,27.80
2018-02-07T00:09:45.054Z,22.10
2018-02-07T00:12:13.324Z,25.07
2018-02-07T00:14:41.619Z,29.63
2018-02-07T00:17:09.967Z,25.47
2018-02-07T00:19:38.269Z,28.40
2018-02-07T00:22:06.640Z,27.17
2018-02-07T00:24:34.920Z,21.20
2018-02-07T00:27:03.293Z,30.90
2018-02-07T00:29:31.564Z,21.73
2018-02-07T00:31:59.823Z,25.47
2018-02-07T00:34:28.235Z,20.80
2018-02-07T00:36:56.486Z,20.93
2018-02-07T00:39:24.761Z,22.00
2018-02-07T00:41:53.040Z,20.43
2018-02-07T00:44:21.322Z,27.93
2018-02-07T00:46:49.600Z,26.10
2018-02-07T00:49:17.866Z,23.30
2018-02-07T00:51:46.152Z,22.67
2018-02-07T00:54:14.423Z,23.50
2018-02-07T00:56:42.733Z,28.70
2018-02-07T00:59:11.007Z,30.37
2018-02-07T01:01:39.383Z,25.20
2018-02-07T01:04:07.764Z,27.13
2018-02-07T01:06:36.144Z,23.90
2018-02-07T01:09:04.404Z,22.60
2018-02-07T01:11:32.802Z,31.80
2018-02-07T01:14:01.082Z,27.73
2018-02-07T01:16:29.362Z,31.63
2018-02-07T01:18:57.663Z,26.10
2018-02-07T01:21:26.731Z,29.37
2018-02-07T01:23:55.004Z,29.63
2018-02-07T01:26:23.269Z,27.10
2018-02-07T01:28:51.564Z,26.93
2018-02-07T01:31:19.943Z,24.60
2018-02-07T01:33:48.231Z,25.70
2018-02-07T01:36:16.496Z,43.57
2018-02-07T01:38:44.819Z,28.83
2018-02-07T01:41:13.157Z,33.47
2018-02-07T01:43:41.448Z,29.40
2018-02-07T01:46:09.807Z,30.00
2018-02-07T01:48:38.082Z,30.80
2018-02-07T01:51:06.354Z,29.40
2018-02-07T01:53:34.756Z,27.70
2018-02-07T01:56:03.221Z,30.83
2018-02-07T01:58:31.515Z,30.33
2018-02-07T02:00:59.780Z,30.50
2018-02-07T02:03:28.257Z,28.30
2018-02-07T02:05:56.536Z,27.80
2018-02-07T02:08:24.922Z,39.00
2018-02-07T02:10:53.204Z,30.43
2018-02-07T02:13:21.471Z,25.87
2018-02-07T02:15:51.279Z,35.70
2018-02-07T02:18:19.543Z,32.53
2018-02-07T02:20:47.833Z,29.97
2018-02-07T02:23:16.116Z,31.30
2018-02-07T02:25:44.496Z,33.50
2018-02-07T02:28:12.768Z,30.00
2018-02-07T02:30:41.147Z,28.77
2018-02-07T02:33:09.415Z,31.40
2018-02-07T02:35:37.708Z,30.77
2018-02-07T02:38:06.000Z,35.00
2018-02-07T02:40:35.078Z,27.17
2018-02-07T02:43:03.377Z,37.03
2018-02-07T02:45:32.441Z,35.50
2018-02-07T02:48:00.731Z,28.43
2018-02-07T02:50:29.015Z,35.33
2018-02-07T02:52:57.291Z,39.80
2018-02-07T02:55:25.582Z,28.43
2018-02-07T02:57:53.892Z,31.53
2018-02-07T03:00:22.963Z,29.90
2018-02-07T03:02:51.358Z,32.60
2018-02-07T03:05:19.640Z,28.27
2018-02-07T03:07:48.032Z,29.03
2018-02-07T03:10:16.299Z,26.40
2018-02-07T03:12:44.589Z,31.87
2018-02-07T03:15:13.640Z,37.20
2018-02-07T03:17:41.931Z,34.67
2018-02-07T03:20:10.320Z,36.37
2018-02-07T03:22:38.699Z,32.27
2018-02-07T03:25:06.985Z,31.00
2018-02-07T03:27:35.292Z,44.30
2018-02-07T03:30:04.341Z,30.40
2018-02-07T03:32:32.600Z,33.30
2018-02-07T03:35:00.928Z,35.53
2018-02-07T03:37:29.972Z,33.00
2018-02-07T03:39:58.256Z,30.70
2018-02-07T03:42:26.536Z,26.97
2018-02-07T03:44:54.822Z,31.70
2018-02-07T03:47:23.088Z,35.67
2018-02-07T03:49:51.380Z,33.40
2018-02-07T03:52:19.655Z,29.57
2018-02-07T03:54:47.956Z,32.80
2018-02-07T03:57:16.368Z,39.03
2018-02-07T03:59:44.651Z,32.93
2018-02-07T04:02:12.927Z,33.77
2018-02-07T04:04:41.230Z,32.90
2018-02-07T04:07:09.495Z,29.47
2018-02-07T04:09:37.779Z,34.23
2018-02-07T04:12:06.047Z,38.60
2018-02-07T04:14:34.331Z,34.80
2018-02-07T04:17:02.623Z,32.47
2018-02-07T04:19:30.929Z,38.70
2018-02-07T04:21:59.196Z,36.30
2018-02-07T04:24:27.483Z,31.17
2018-02-07T04:26:55.850Z,42.83
2018-02-07T04:29:24.144Z,27.50
2018-02-07T04:31:52.507Z,38.77
2018-02-07T04:34:20.890Z,41.20
2018-02-07T04:36:49.369Z,32.77
2018-02-07T04:39:17.643Z,35.13
2018-02-07T04:41:45.916Z,33.60
2018-02-07T04:44:14.192Z,29.70
2018-02-07T04:46:42.485Z,32.93
2018-02-07T04:49:10.758Z,34.63
2018-02-07T04:51:39.060Z,34.10
2018-02-07T04:54:08.105Z,34.57
2018-02-07T04:56:36.441Z,42.07
2018-02-07T04:59:04.712Z,33.03
2018-02-07T05:01:33.022Z,35.70
2018-02-07T05:04:02.060Z,27.83
2018-02-07T05:06:30.352Z,34.17
2018-02-07T05:08:58.631Z,35.63
2018-02-07T05:11:26.918Z,36.53
2018-02-07T05:13:55.196Z,42.17
2018-02-07T05:16:23.581Z,37.10
2018-02-07T05:18:51.978Z,36.43
2018-02-07T05:21:20.244Z,33.23
2018-02-07T05:23:48.612Z,37.43
2018-02-07T05:26:16.883Z,35.47
2018-02-07T05:28:45.167Z,40.93
2018-02-07T05:31:13.440Z,37.13
2018-02-07T05:33:41.737Z,35.40
2018-02-07T05:36:10.012Z,36.80
2018-02-07T05:38:38.332Z,33.07
2018-02-07T05:41:06.599Z,37.03
2018-02-07T05:43:34.885Z,36.43
2018-02-07T05:46:03.204Z,34.00
2018-02-07T05:48:31.582Z,33.67
2018-02-07T05:50:59.841Z,39.13
2018-02-07T05:53:28.147Z,28.60
2018-02-07T05:55:56.412Z,30.27
2018-02-07T05:58:24.696Z,38.50
2018-02-07T06:00:52.979Z,31.80
2018-02-07T06:03:21.248Z,45.57
2018-02-07T06:05:49.538Z,36.33
2018-02-07T06:08:18.018Z,38.13
2018-02-07T06:10:46.384Z,38.43
2018-02-07T06:13:14.649Z,32.60
2018-02-07T06:15:42.938Z,34.40
2018-02-07T06:18:11.193Z,41.10
2018-02-07T06:20:39.477Z,40.83
2018-02-07T06:23:07.752Z,45.17
2018-02-07T06:25:36.389Z,43.00
2018-02-07T06:28:04.649Z,45.40
2018-02-07T06:30:34.476Z,46.47
2018-02-07T06:33:03.515Z,35.43
2018-02-07T06:35:31.816Z,34.80
2018-02-07T06:38:00.085Z,51.47
2018-02-07T06:40:28.351Z,44.80
2018-02-07T06:42:56.688Z,32.47
2018-02-07T06:45:24.941Z,43.50
2018-02-07T06:47:53.248Z,36.77
2018-02-07T06:50:21.529Z,38.90
2018-02-07T06:52:49.828Z,42.83
2018-02-07T06:55:18.096Z,50.47
2018-02-07T06:57:46.392Z,34.50
2018-02-07T07:00:14.707Z,40.97
2018-02-07T07:02:43.037Z,45.17
2018-02-07T07:05:11.353Z,42.80
2018-02-07T07:07:39.660Z,41.83
2018-02-07T07:10:08.776Z,43.83
2018-02-07T07:12:37.057Z,45.03
2018-02-07T07:15:05.335Z,42.93
2018-02-07T07:17:33.627Z,43.53
2018-02-07T07:20:01.928Z,42.60
2018-02-07T07:22:30.221Z,43.73
2018-02-07T07:24:58.517Z,45.40
2018-02-07T07:27:27.580Z,41.70
2018-02-07T07:29:55.853Z,44.93
2018-02-07T07:32:24.153Z,42.43
2018-02-07T07:34:53.187Z,46.60
2018-02-07T07:37:21.553Z,39.57
2018-02-07T07:39:50.580Z,45.93
2018-02-07T07:42:18.864Z,53.53
2018-02-07T07:44:47.268Z,46.83
2018-02-07T07:47:15.537Z,48.97
2018-02-07T07:49:43.835Z,49.00
2018-02-07T07:52:12.100Z,40.67
2018-02-07T07:54:40.390Z,54.20
2018-02-07T07:57:08.695Z,48.00
2018-02-07T07:59:37.005Z,48.93
2018-02-07T08:02:05.306Z,50.23
2018-02-07T08:04:33.595Z,44.10
2018-02-07T08:07:01.869Z,45.73
2018-02-07T08:09:30.180Z,50.83
2018-02-07T08:11:58.472Z,40.53
2018-02-07T08:14:26.763Z,56.60
2018-02-07T08:16:55.051Z,42.57
2018-02-07T08:19:23.357Z,54.80
2018-02-07T08:21:51.646Z,45.47
2018-02-07T08:24:20.732Z,48.03
2018-02-07T08:26:49.098Z,52.37
2018-02-07T08:29:17.367Z,55.73
2018-02-07T08:31:45.655Z,53.07
2018-02-07T08:34:13.933Z,50.27
2018-02-07T08:36:42.233Z,49.53
2018-02-07T08:39:10.506Z,44.43
2018-02-07T08:41:38.812Z,55.57
2018-02-07T08:44:07.091Z,43.83
2018-02-07T08:46:36.172Z,49.30
2018-02-07T08:49:04.451Z,54.20
2018-02-07T08:51:32.742Z,48.53
2018-02-07T08:54:01.060Z,42.03
2018-02-07T08:56:29.352Z,50.10
2018-02-07T08:58:57.641Z,59.07
2018-02-07T09:01:25.958Z,50.37
2018-02-07T09:03:54.330Z,53.40
2018-02-07T09:06:22.627Z,48.10
2018-02-07T09:08:51.672Z,63.87
2018-02-07T09:11:19.965Z,53.23
2018-02-07T09:13:48.247Z,58.63
2018-02-07T09:16:16.581Z,56.57
2018-02-07T09:18:45.939Z,56.53
2018-02-07T09:21:14.358Z,50.83
2018-02-07T09:23:42.632Z,48.70
2018-02-07T09:26:10.931Z,53.90
2018-02-07T09:28:39.224Z,62.20
2018-02-07T09:31:07.511Z,53.50
2018-02-07T09:33:35.916Z,47.20
2018-02-07T09:36:04.198Z,58.63
2018-02-07T09:38:33.273Z,57.37
2018-02-07T09:41:01.565Z,61.00
2018-02-07T09:43:29.860Z,49.50
2018-02-07T09:45:58.905Z,59.47
2018-02-07T09:48:27.201Z,66.47
2018-02-07T09:50:55.677Z,70.73
2018-02-07T09:53:23.976Z,55.40
2018-02-07T09:55:53.020Z,56.17
2018-02-07T09:58:21.312Z,59.73
2018-02-07T10:00:49.592Z,50.20
2018-02-07T10:03:17.884Z,58.93
2018-02-07T10:05:46.260Z,64.10
2018-02-07T10:08:14.547Z,58.80
2018-02-07T10:10:42.931Z,60.77
2018-02-07T10:13:11.207Z,62.77
2018-02-07T10:15:39.477Z,62.40
2018-02-07T10:18:09.288Z,53.27
2018-02-07T10:20:37.555Z,55.77
2018-02-07T10:23:05.940Z,61.43
2018-02-07T10:25:34.225Z,67.00
2018-02-07T10:28:02.534Z,58.60
2018-02-07T10:30:31.568Z,58.83
2018-02-07T10:32:59.852Z,62.07
2018-02-07T10:35:28.248Z,51.97
2018-02-07T10:37:56.520Z,66.53
2018-02-07T10:40:25.929Z,61.90
2018-02-07T10:42:54.323Z,72.13
2018-02-07T10:45:22.587Z,58.50
2018-02-07T10:47:50.972Z,75.57
2018-02-07T10:50:19.345Z,57.00
2018-02-07T10:52:47.722Z,66.43
2018-02-07T10:55:16.207Z,67.07
2018-02-07T10:57:44.485Z,63.63
2018-02-07T11:00:12.758Z,81.43
2018-02-07T11:02:41.048Z,57.07
2018-02-07T11:05:09.347Z,49.53
2018-02-07T11:07:38.516Z,64.27
2018-02-07T11:10:06.797Z,62.57
2018-02-07T11:12:35.074Z,64.53
2018-02-07T11:15:03.447Z,58.47
2018-02-07T11:17:31.707Z,81.37
2018-02-07T11:20:00.102Z,55.30
2018-02-07T11:22:28.380Z,66.83
2018-02-07T11:24:56.759Z,63.17
2018-02-07T11:27:25.138Z,61.80
2018-02-07T11:29:53.520Z,66.27
2018-02-07T11:32:21.800Z,58.37
2018-02-07T11:34:50.180Z,50.40
2018-02-07T11:37:18.450Z,71.57
2018-02-07T11:39:46.719Z,59.30
2018-02-07T11:42:15.006Z,52.60
2018-02-07T11:44:43.285Z,59.63
2018-02-07T11:47:11.558Z,53.33
2018-02-07T11:49:39.952Z,52.90
2018-02-07T11:52:08.212Z,63.47
2018-02-07T11:54:36.493Z,65.67
2018-02-07T11:57:04.975Z,51.17
2018-02-07T11:59:33.229Z,54.90
2018-02-07T12:02:01.528Z,63.73
2018-02-07T12:04:29.909Z,56.43
2018-02-07T12:06:58.192Z,59.90
2018-02-07T12:09:26.568Z,54.30
2018-02-07T12:11:54.963Z,53.43
2018-02-07T12:14:23.999Z,46.00
2018-02-07T12:16:52.285Z,53.33
2018-02-07T12:19:20.604Z,51.03
2018-02-07T12:21:48.892Z,60.80
2018-02-07T12:24:17.968Z,48.03
2018-02-07T12:26:46.256Z,55.97
2018-02-07T12:29:16.037Z,59.07
2018-02-07T12:31:44.364Z,57.47
2018-02-07T12:34:13.408Z,56.87
2018-02-07T12:36:41.714Z,45.73
2018-02-07T12:39:09.998Z,50.73
2018-02-07T12:41:38.265Z,47.73
2018-02-07T12:44:06.564Z,47.90
2018-02-07T12:46:35.618Z,44.47
2018-02-07T12:49:03.928Z,55.17
2018-02-07T12:51:32.192Z,47.67
2018-02-07T12:54:00.480Z,49.43
2018-02-07T12:56:30.267Z,47.83
2018-02-07T12:58:58.618Z,50.27
2018-02-07T13:01:26.914Z,43.77
2018-02-07T13:03:55.418Z,52.67
2018-02-07T13:06:23.696Z,45.63
2018-02-07T13:08:52.037Z,47.47
2018-02-07T13:11:20.354Z,48.67
2018-02-07T13:13:48.640Z,46.47
2018-02-07T13:16:16.913Z,46.10
2018-02-07T13:18:45.389Z,45.03
2018-02-07T13:21:13.699Z,46.10
2018-02-07T13:23:42.764Z,43.20
2018-02-07T13:26:11.137Z,44.03
2018-02-07T13:28:39.409Z,42.27
2018-02-07T13:31:07.708Z,53.40
2018-02-07T13:33:35.976Z,51.13
2018-02-07T13:36:04.280Z,50.27
2018-02-07T13:38:34.044Z,45.77
2018-02-07T13:41:02.405Z,49.63
2018-02-07T13:43:30.682Z,47.57
2018-02-07T13:45:58.948Z,46.77
2018-02-07T13:48:27.235Z,47.10
2018-02-07T13:50:55.501Z,44.57
2018-02-07T13:53:23.826Z,37.47
2018-02-07T13:55:52.092Z,52.83
2018-02-07T13:58:20.382Z,40.73
2018-02-07T14:00:53.605Z,43.10
2018-02-07T14:03:22.670Z,35.40
2018-02-07T14:05:50.925Z,44.60
2018-02-07T14:08:19.225Z,51.23
2018-02-07T14:10:47.608Z,42.37
2018-02-07T14:13:15.909Z,41.93
2018-02-07T14:15:44.273Z,51.77
2018-02-07T14:18:12.573Z,40.93
2018-02-07T14:20:41.603Z,49.10
2018-02-07T14:23:09.916Z,50.00
2018-02-07T14:25:38.209Z,43.93
2018-02-07T14:28:06.485Z,44.40
2018-02-07T14:30:36.256Z,48.63
2018-02-07T14:33:04.573Z,40.93
2018-02-07T14:35:33.608Z,45.87
2018-02-07T14:38:01.942Z,48.07
2018-02-07T14:40:30.207Z,35.33
2018-02-07T14:42:58.496Z,46.33
2018-02-07T14:45:26.759Z,38.43
2018-02-07T14:47:55.105Z,36.53
2018-02-07T14:50:23.422Z,29.77
2018-02-07T14:52:51.792Z,30.33
2018-02-07T14:55:20.051Z,27.73
2018-02-07T14:57:48.351Z,31.67
2018-02-07T15:00:16.734Z,26.80
2018-02-07T15:02:45.013Z,24.63
2018-02-07T15:05:13.497Z,24.37
2018-02-07T15:07:41.768Z,24.00
2018-02-07T15:10:10.043Z,28.43
2018-02-07T15:12:38.434Z,28.40
2018-02-07T15:15:06.730Z,28.17
2018-02-07T15:17:34.986Z,23.13
2018-02-07T15:20:03.280Z,25.73
2018-02-07T15:22:31.543Z,23.07
2018-02-07T15:24:59.913Z,32.67
2018-02-07T15:27:28.177Z,26.73
2018-02-07T15:29:56.477Z,32.23
2018-02-07T15:32:25.507Z,28.47
2018-02-07T15:34:53.774Z,34.70
2018-02-07T15:37:22.831Z,28.40
2018-02-07T15:39:51.091Z,27.90
2018-02-07T15:42:19.388Z,26.23
2018-02-07T15:44:47.681Z,27.70
2018-02-07T15:47:15.953Z,31.27
2018-02-07T15:49:44.221Z,32.47
2018-02-07T15:52:12.605Z,32.47
2018-02-07T15:54:40.879Z,29.50
2018-02-07T15:57:09.263Z,31.77
2018-02-07T15:59:37.535Z,27.03
2018-02-07T16:02:05.912Z,34.10
2018-02-07T16:04:34.202Z,30.90
2018-02-07T16:07:02.567Z,31.00
2018-02-07T16:09:30.837Z,31.13
2018-02-07T16:11:59.095Z,34.80
2018-02-07T16:14:27.379Z,29.47
2018-02-07T16:16:55.684Z,27.70
2018-02-07T16:19:23.980Z,28.03
2018-02-07T16:21:53.024Z,29.60
2018-02-07T16:24:21.337Z,27.10
2018-02-07T16:26:50.421Z,27.90
2018-02-07T16:29:18.705Z,25.03
2018-02-07T16:31:47.021Z,27.70
2018-02-07T16:34:15.356Z,25.70
2018-02-07T16:36:43.633Z,28.53
2018-02-07T16:39:12.015Z,31.80
2018-02-07T16:41:40.287Z,34.23
2018-02-07T16:44:08.578Z,28.03
2018-02-07T16:46:36.950Z,28.47
2018-02-07T16:49:05.255Z,30.53
2018-02-07T16:51:33.532Z,29.83
2018-02-07T16:54:02.569Z,25.80
2018-02-07T16:56:30.855Z,31.27
2018-02-07T16:58:59.131Z,30.80
2018-02-07T17:01:27.420Z,27.60
2018-02-07T17:03:55.705Z,30.53
2018-02-07T17:06:24.188Z,34.53
2018-02-07T17:08:52.462Z,30.20
2018-02-07T17:11:20.945Z,25.90
2018-02-07T17:13:49.195Z,29.03
2018-02-07T17:16:17.530Z,32.57
2018-02-07T17:18:46.577Z,26.93
2018-02-07T17:21:14.892Z,26.17
2018-02-07T17:23:43.166Z,28.57
2018-02-07T17:26:11.468Z,30.30
2018-02-07T17:28:39.765Z,33.80
2018-02-07T17:31:08.031Z,28.50
2018-02-07T17:33:36.366Z,33.00
2018-02-07T17:36:04.649Z,27.57
2018-02-07T17:38:32.932Z,33.20
2018-02-07T17:41:01.205Z,29.10
2018-02-07T17:43:29.671Z,35.50
2018-02-07T17:45:57.951Z,33.03
2018-02-07T17:48:26.228Z,31.97
2018-02-07T17:50:54.497Z,35.70
2018-02-07T17:53:22.807Z,40.20
2018-02-07T17:55:51.061Z,40.70
2018-02-07T17:58:19.356Z,41.50
2018-02-07T18:00:47.617Z,45.80
2018-02-07T18:03:15.899Z,46.63
2018-02-07T18:05:44.176Z,39.60
2018-02-07T18:08:12.469Z,37.80
2018-02-07T18:10:40.743Z,42.03
2018-02-07T18:13:09.022Z,36.73
2018-02-07T18:15:38.204Z,44.87
2018-02-07T18:18:06.480Z,35.93
2018-02-07T18:20:34.772Z,38.30
2018-02-07T18:23:03.849Z,50.43
2018-02-07T18:25:32.140Z,45.80
2018-02-07T18:28:00.503Z,49.63
2018-02-07T18:30:28.805Z,43.53
2018-02-07T18:32:57.069Z,51.50
2018-02-07T18:35:25.367Z,50.67
2018-02-07T18:37:54.400Z,53.17
2018-02-07T18:40:22.721Z,55.93
2018-02-07T18:42:50.995Z,59.37
2018-02-07T18:45:19.371Z,61.93
2018-02-07T18:47:47.659Z,61.27
2018-02-07T18:50:16.128Z,60.27
2018-02-07T18:52:44.534Z,60.83
2018-02-07T18:55:13.568Z,49.40
2018-02-07T18:57:41.870Z,57.57
2018-02-07T19:00:10.132Z,65.60
2018-02-07T19:02:38.425Z,64.23
2018-02-07T19:05:06.698Z,68.50
2018-02-07T19:07:34.978Z,55.00
2018-02-07T19:10:03.271Z,65.27
2018-02-07T19:12:31.654Z,62.30
2018-02-07T19:14:59.948Z,64.60
2018-02-07T19:17:28.989Z,50.13
2018-02-07T19:19:57.317Z,60.40
2018-02-07T19:22:25.609Z,59.33
2018-02-07T19:24:54.672Z,66.23
2018-02-07T19:27:22.942Z,59.33
2018-02-07T19:29:51.231Z,69.40
2018-02-07T19:32:19.513Z,52.23
2018-02-07T19:34:47.832Z,48.07
2018-02-07T19:37:16.114Z,62.70
2018-02-07T19:39:44.407Z,62.37
2018-02-07T19:42:12.713Z,64.07
2018-02-07T19:44:40.983Z,60.23
2018-02-07T19:47:09.293Z,63.30
2018-02-07T19:49:38.339Z,63.23
2018-02-07T19:52:06.850Z,54.40
2018-02-07T19:54:35.107Z,63.20
2018-02-07T19:57:03.436Z,69.30
2018-02-07T19:59:31.715Z,61.97
2018-02-07T20:01:59.992Z,55.23
2018-02-07T20:04:28.284Z,65.17
2018-02-07T20:06:56.566Z,66.43
2018-02-07T20:09:24.860Z,68.90
2018-02-07T20:11:53.136Z,62.20
2018-02-07T20:14:21.429Z,65.90
2018-02-07T20:16:49.706Z,71.30
2018-02-07T20:19:18.010Z,71.30
2018-02-07T20:21:46.275Z,65.33
2018-02-07T20:24:14.568Z,83.70
2018-02-07T20:26:43.628Z,64.70
2018-02-07T20:29:11.936Z,69.90
2018-02-07T20:31:40.213Z,70.40
2018-02-07T20:34:09.424Z,66.97
2018-02-07T20:36:38.477Z,75.83
2018-02-07T20:39:06.773Z,82.17
2018-02-07T20:41:35.065Z,67.57
2018-02-07T20:44:04.127Z,73.63
2018-02-07T20:46:32.517Z,71.20
2018-02-07T20:49:00.956Z,75.90
2018-02-07T20:51:29.226Z,78.40
2018-02-07T20:53:57.872Z,70.23
2018-02-07T20:56:26.293Z,74.20
2018-02-07T20:58:54.629Z,79.77
2018-02-07T21:01:22.901Z,67.50
2018-02-07T21:03:51.177Z,65.97
2018-02-07T21:06:19.476Z,74.90
2018-02-07T21:08:47.744Z,79.30
2018-02-07T21:11:16.027Z,74.80
2018-02-07T21:13:44.315Z,71.43
2018-02-07T21:16:13.373Z,79.97
2018-02-07T21:18:41.675Z,73.20
2018-02-07T21:21:10.037Z,68.33
2018-02-07T21:23:38.327Z,75.50
2018-02-07T21:26:06.613Z,80.73
2018-02-07T21:28:34.888Z,74.13
2018-02-07T21:31:03.203Z,90.20
2018-02-07T21:33:31.478Z,73.07
2018-02-07T21:35:59.753Z,65.10
2018-02-07T21:38:28.061Z,87.03
2018-02-07T21:40:56.351Z,69.27
2018-02-07T21:43:24.651Z,80.60
2018-02-07T21:45:52.927Z,79.90
2018-02-07T21:48:21.224Z,66.00
2018-02-07T21:50:50.255Z,82.13
2018-02-07T21:53:18.548Z,80.70
2018-02-07T21:55:46.869Z,89.63
2018-02-07T21:58:15.928Z,70.20
2018-02-07T22:00:44.207Z,73.80
2018-02-07T22:03:12.505Z,84.33
2018-02-07T22:05:41.556Z,91.27
2018-02-07T22:08:09.848Z,82.00
2018-02-07T22:10:38.152Z,77.70
2018-02-07T22:13:06.440Z,75.30
2018-02-07T22:15:35.852Z,77.17
2018-02-07T22:18:04.125Z,65.23
2018-02-07T22:20:33.163Z,73.77
2018-02-07T22:23:01.475Z,67.23
2018-02-07T22:25:29.777Z,77.13
2018-02-07T22:27:58.840Z,85.47
2018-02-07T22:30:27.120Z,87.23
2018-02-07T22:32:55.401Z,83.70
2018-02-07T22:35:23.777Z,74.57
2018-02-07T22:37:52.049Z,77.80
2018-02-07T22:40:20.363Z,85.70
2018-02-07T22:42:49.407Z,70.67
2018-02-07T22:45:17.805Z,76.10
2018-02-07T22:47:46.088Z,74.30
2018-02-07T22:50:14.382Z,68.67
2018-02-07T22:52:42.645Z,64.97
2018-02-07T22:55:10.940Z,64.87
2018-02-07T22:57:39.982Z,76.83
2018-02-07T23:00:08.264Z,69.10
2018-02-07T23:02:36.564Z,77.63
2018-02-07T23:05:04.830Z,83.93
2018-02-07T23:07:33.103Z,88.40
2018-02-07T23:10:01.373Z,66.60
2018-02-07T23:12:29.657Z,79.90
2018-02-07T23:14:57.928Z,71.67
2018-02-07T23:17:26.235Z,79.57
2018-02-07T23:19:54.523Z,71.70
2018-02-07T23:22:23.605Z,76.57
2018-02-07T23:24:51.884Z,68.43
2018-02-07T23:27:20.916Z,68.17
2018-02-07T23:29:49.195Z,56.13
2018-02-07T23:32:17.476Z,61.53
2018-02-07T23:34:45.768Z,71.10
2018-02-07T23:37:14.080Z,61.70
2018-02-07T23:39:42.464Z,76.43
2018-02-07T23:42:10.837Z,80.00
2018-02-07T23:44:39.144Z,62.90
2018-02-07T23:47:08.191Z,65.53
2018-02-07T23:49:36.473Z,83.67
2018-02-07T23:52:04.768Z,70.13
2018-02-07T23:54:33.057Z,73.53
2018-02-07T23:57:01.341Z,70.20
2018-02-07T23:59:29.619Z,70.20
